Aeroporto :
LOGIN :

Iscrizione | Disclaimer

   EN    FR    IT 

 










Sommario :    VFR   VFR Marginale   IFR   IFR Intensivo   IFR Molto Intensivo
Visibilità : 
Base nubi : 
>= 8 km
>= 3000ft
5 / 8 km
1000 / 3000 ft
1500m / 5 km
500 / 1000 ft
800 / 1500m
200 / 500 ft
< 800m
< 200 ft
Simboli :   Temporali  Nebbia  Neve Forte  Precipitazioni Forti  Vento > 20 kt
SIGMETs :   Varie  Temporali  Ghiacco  Turbolenza  Onda orograficha  Ceneri Vulcaniche






- Altitudine del aeroporto : 63 ft
- Codice IATA : BZM


EHWO - Woensdrecht Airbase

ULTIMO METAR :
  • 182310Z AUTO 24015G25KT 5000 RA SCT000 SCT005 BKN008 BKN015CB 06/05 Q1013 RED

METARs OBSOLETI :
  • 182259Z AUTO 24017KT 6000 RA FEW005 SCT014 BKN015CB 06/05 Q1013 GRN
  • 182243Z AUTO 22018G31KT 180V260 6000 SHRA FEW008 SCT015CB BKN017 BKN022 07/05 Q1013 WHT
  • 182238Z AUTO 22017G28KT 180V250 9000 -RA FEW008 FEW015CB BKN016 OVC020 07/05 Q1013 WHT
  • 182226Z AUTO 22015G26KT 180V250 9999 +DZRA FEW015CB SCT016 OVC024 07/05 Q1014 WHT
  • 182225Z AUTO 22014KT 180V250 9999 DZ FEW015CB SCT017 OVC024 07/05 Q1014 WHT
  • 182205Z AUTO 22015KT 170V250 6000 SHRA FEW015CB BKN020 BKN023 07/04 Q1014 WHT
  • 182155Z AUTO 22014KT 170V260 9999 FEW019 BKN026 OVC030 08/04 Q1014 BLU
  • 182133Z AUTO 22014KT 180V250 9999 FEW018 SCT033 BKN044 07/04 Q1015 BLU
  • 182114Z AUTO 22015KT 160V270 9999 FEW020 SCT025 BKN029 08/04 Q1015 BLU
  • 182106Z AUTO 22014KT 160V250 9999 SCT023 BKN027 BKN032 08/04 Q1015 WHT
  • 182055Z AUTO 22015KT 190V250 9999 FEW022 SCT025 OVC099 08/04 Q1016 BLU
  • 182036Z AUTO 22014G27KT 170V250 9999 BKN023 OVC026 08/04 Q1016 WHT
  • 182029Z AUTO 22015G27KT 170V250 9999 SCT023 BKN026 OVC031 08/04 Q1016 WHT

Previsioni scadute.



MetMap, La meteo Aeronautica in un colpo d'occhio ! - Copyright ORBIFLY Dicembre 2007 - Disclaimer

ORBIFLY MET'MAP TEAM :

Programmazione e sviluppo : Alexandra Zaïnal
Concezione : Baudouin d'Aumeries
Aiuto per la programmazione : Marc-Olivier Méhu
Supporto tecnico e logistico : Manuel Goepfert
Aiuto per la traduzione : Arnaldo La Scala

Contatto : metmap@orbifly.com




FONTI E CREDITI :

   NOAA